Hlavní strana
METAR-TAF:

METAR-TAF

Letiště :

Newberry, Jižní Karolína, Spojené státy americké

zeměpisná šířka: 34-18-34N, zeměpisná délka: 081-38-26W, výška: 174 m

Aktuální stav počasí

Zpráva byla vytvořena před 8 minutami, v 10:55 UTC
Jihozápadní vítr 5 kt
Teplota 21°C
Vlhkost vzduchu 94%
Tlak 1022 hPa
Viditelnost: 16.1 km
Jasno

METAR: KEOE 241055Z AUTO 23005KT 10SM CLR 21/20 A3019 RMK AO2

Čas: 07:03 (11:03 UTC)


TAF: chybějící

Stav a předpovědi počasí z více než 4 000 letišť (zprávy METAR a TAF).

Červené a žluté tečky na mapě představují dostupné meteorologické stanice.

Když kurzor umístíte na tečku, zobrazí se název stanice.

Pak kliknutím zobrazíte stav a předpověď počasí.

Chcete-li změnit mapu, kliknutím na zelené tlačítko se znaménkem +mapu přiblížíte, kliknutím na zelené tlačítko se znaménkem – mapu oddálíte a kliknutím na zelené šipky přejdete na sousední mapy.


METAR-TAF: